createdAt,value
2023-02-12T00:02:25.726Z,100517.59
2023-02-12T00:04:52.534Z,100513.91
2023-02-12T00:07:19.038Z,100524.47
2023-02-12T00:09:45.535Z,100527.34
2023-02-12T00:12:12.051Z,100524.50
2023-02-12T00:14:38.604Z,100520.66
2023-02-12T00:17:05.124Z,100515.09
2023-02-12T00:19:31.698Z,100502.59
2023-02-12T00:21:58.175Z,100513.94
2023-02-12T00:24:25.054Z,100504.41
2023-02-12T00:26:51.639Z,100498.16
2023-02-12T00:29:18.090Z,100503.53
2023-02-12T00:31:44.655Z,100500.63
2023-02-12T00:34:11.436Z,100499.19
2023-02-12T00:36:37.957Z,100481.03
2023-02-12T00:39:04.755Z,100500.59
2023-02-12T00:41:32.608Z,100500.69
2023-02-12T00:43:59.265Z,100497.63
2023-02-12T00:46:25.814Z,100501.25
2023-02-12T00:48:52.308Z,100493.72
2023-02-12T00:51:18.822Z,100486.16
2023-02-12T00:53:45.320Z,100502.28
2023-02-12T00:56:11.805Z,100489.38
2023-02-12T00:58:38.299Z,100490.84
2023-02-12T01:01:04.930Z,100502.31
2023-02-12T01:03:31.581Z,100502.72
2023-02-12T01:05:58.363Z,100500.16
2023-02-12T01:08:25.057Z,100498.28
2023-02-12T01:11:03.143Z,100496.34
2023-02-12T01:13:32.029Z,100500.00
2023-02-12T01:16:03.102Z,100511.63
2023-02-12T01:18:29.901Z,100512.75
2023-02-12T01:20:56.448Z,100507.41
2023-02-12T01:23:22.953Z,100506.38
2023-02-12T01:25:49.464Z,100501.59
2023-02-12T01:28:15.948Z,100499.63
2023-02-12T01:30:42.479Z,100507.56
2023-02-12T01:33:09.011Z,100508.41
2023-02-12T01:35:37.962Z,100513.97
2023-02-12T01:38:04.441Z,100512.94
2023-02-12T01:40:30.994Z,100507.94
2023-02-12T01:43:01.077Z,100509.50
2023-02-12T01:45:36.715Z,100500.72
2023-02-12T01:48:03.437Z,100495.63
2023-02-12T01:50:30.034Z,100501.56
2023-02-12T01:52:58.774Z,100498.44
2023-02-12T01:55:25.816Z,100488.34
2023-02-12T01:57:52.402Z,100497.41
2023-02-12T02:00:24.488Z,100486.53
2023-02-12T02:03:00.288Z,100486.50
2023-02-12T02:05:33.298Z,100486.47
2023-02-12T02:08:00.045Z,100474.56
2023-02-12T02:10:26.595Z,100481.09
2023-02-12T02:13:11.358Z,100474.25
2023-02-12T02:15:41.943Z,100472.25
2023-02-12T02:18:24.979Z,100473.03
2023-02-12T02:21:09.117Z,100464.31
2023-02-12T02:24:04.928Z,100471.88
2023-02-12T02:27:18.690Z,100470.78
2023-02-12T02:30:14.897Z,100474.22
2023-02-12T02:32:55.108Z,100474.22
2023-02-12T02:35:32.895Z,100480.78
2023-02-12T02:38:20.845Z,100468.19
2023-02-12T02:40:55.055Z,100462.19
2023-02-12T02:43:30.081Z,100465.63
2023-02-12T02:46:05.393Z,100459.66
2023-02-12T02:48:44.250Z,100459.16
2023-02-12T02:51:20.295Z,100467.34
2023-02-12T02:53:56.804Z,100466.00
2023-02-12T02:56:25.052Z,100465.88
2023-02-12T02:58:57.841Z,100472.31
2023-02-12T03:01:27.064Z,100466.63
2023-02-12T03:04:06.337Z,100456.81
2023-02-12T03:06:40.333Z,100460.56
2023-02-12T03:09:17.030Z,100469.25
2023-02-12T03:11:43.700Z,100455.59
2023-02-12T03:14:23.681Z,100456.59
2023-02-12T03:17:05.215Z,100446.13
2023-02-12T03:19:43.549Z,100460.38
2023-02-12T03:22:14.307Z,100461.75
2023-02-12T03:24:53.748Z,100463.69
2023-02-12T03:27:27.187Z,100467.28
2023-02-12T03:29:53.811Z,100451.41
2023-02-12T03:32:50.886Z,100442.28
2023-02-12T03:35:32.964Z,100449.03
2023-02-12T03:38:17.795Z,100456.03
2023-02-12T03:40:56.543Z,100457.44
2023-02-12T03:43:28.435Z,100455.78
2023-02-12T03:46:03.996Z,100461.19
2023-02-12T03:48:41.303Z,100463.22
2023-02-12T03:51:25.876Z,100466.94
2023-02-12T03:53:52.848Z,100467.91
2023-02-12T03:56:25.563Z,100469.47
2023-02-12T03:58:52.065Z,100477.16
2023-02-12T04:01:18.780Z,100472.34
2023-02-12T04:03:45.290Z,100476.91
2023-02-12T04:06:27.218Z,100469.47
2023-02-12T04:08:56.414Z,100474.03
2023-02-12T04:11:37.712Z,100478.38
2023-02-12T04:14:22.537Z,100487.00
2023-02-12T04:16:57.979Z,100485.31
2023-02-12T04:19:43.749Z,100487.22
2023-02-12T04:22:48.875Z,100474.41
2023-02-12T04:25:53.987Z,100479.56
2023-02-12T04:28:34.731Z,100480.75
2023-02-12T04:31:29.875Z,100482.44
2023-02-12T04:34:09.781Z,100484.59
2023-02-12T04:36:45.761Z,100467.81
2023-02-12T04:39:19.005Z,100470.91
2023-02-12T04:41:45.503Z,100483.88
2023-02-12T04:44:23.232Z,100482.31
2023-02-12T04:46:50.465Z,100494.19
2023-02-12T04:49:18.953Z,100495.16
2023-02-12T04:51:46.479Z,100478.81
2023-02-12T04:54:14.227Z,100493.09
2023-02-12T04:56:40.700Z,100490.31
2023-02-12T04:59:07.640Z,100500.69
2023-02-12T05:01:35.360Z,100497.81
2023-02-12T05:04:02.252Z,100485.44
2023-02-12T05:06:30.476Z,100486.00
2023-02-12T05:08:57.934Z,100477.16
2023-02-12T05:11:24.580Z,100477.16
2023-02-12T05:13:53.005Z,100475.00
2023-02-12T05:16:21.390Z,100486.97
2023-02-12T05:18:48.134Z,100478.22
2023-02-12T05:21:15.275Z,100477.16
2023-02-12T05:23:41.973Z,100483.63
2023-02-12T05:26:15.693Z,100480.28
2023-02-12T05:28:42.245Z,100478.72
2023-02-12T05:31:11.385Z,100478.81
2023-02-12T05:33:37.910Z,100480.50
2023-02-12T05:36:10.580Z,100482.91
2023-02-12T05:38:37.105Z,100478.34
2023-02-12T05:41:08.418Z,100479.06
2023-02-12T05:43:35.234Z,100473.31
2023-02-12T05:46:04.285Z,100469.25
2023-02-12T05:48:31.402Z,100465.41
2023-02-12T05:51:11.740Z,100473.06
2023-02-12T05:53:39.798Z,100467.78
2023-02-12T05:56:09.470Z,100464.53
2023-02-12T05:58:36.274Z,100461.41
2023-02-12T06:01:02.982Z,100463.09
2023-02-12T06:03:29.550Z,100463.59
2023-02-12T06:05:56.440Z,100463.22
2023-02-12T06:08:23.088Z,100462.03
2023-02-12T06:10:49.534Z,100457.59
2023-02-12T06:13:16.010Z,100465.13
2023-02-12T06:15:42.545Z,100467.78
2023-02-12T06:18:09.010Z,100465.63
2023-02-12T06:20:35.447Z,100462.38
2023-02-12T06:23:01.870Z,100468.63
2023-02-12T06:25:28.368Z,100462.16
2023-02-12T06:27:54.821Z,100466.59
2023-02-12T06:30:21.450Z,100471.63
2023-02-12T06:32:50.288Z,100476.28
2023-02-12T06:35:16.879Z,100474.50
2023-02-12T06:37:43.393Z,100474.00
2023-02-12T06:40:10.263Z,100473.53
2023-02-12T06:42:36.722Z,100466.78
2023-02-12T06:45:03.652Z,100471.94
2023-02-12T06:47:30.103Z,100463.88
2023-02-12T06:49:56.657Z,100464.59
2023-02-12T06:52:23.273Z,100467.81
2023-02-12T06:54:49.773Z,100474.16
2023-02-12T06:57:16.266Z,100470.06
2023-02-12T06:59:42.751Z,100475.47
2023-02-12T07:02:11.219Z,100477.34
2023-02-12T07:04:39.045Z,100474.25
2023-02-12T07:07:06.047Z,100472.66
2023-02-12T07:09:32.642Z,100479.63
2023-02-12T07:11:59.449Z,100470.22
2023-02-12T07:14:28.295Z,100483.59
2023-02-12T07:16:57.258Z,100476.47
2023-02-12T07:19:24.170Z,100473.50
2023-02-12T07:21:50.709Z,100478.00
2023-02-12T07:24:18.199Z,100472.34
2023-02-12T07:26:44.807Z,100473.19
2023-02-12T07:29:11.322Z,100474.34
2023-02-12T07:31:37.900Z,100478.22
2023-02-12T07:34:04.520Z,100478.72
2023-02-12T07:36:32.865Z,100483.44
2023-02-12T07:39:00.181Z,100484.41
2023-02-12T07:41:29.408Z,100477.88
2023-02-12T07:44:07.981Z,100485.63
2023-02-12T07:46:37.408Z,100489.66
2023-02-12T07:49:05.974Z,100490.81
2023-02-12T07:51:36.616Z,100491.78
2023-02-12T07:54:04.196Z,100492.34
2023-02-12T07:56:35.226Z,100498.28
2023-02-12T07:59:04.528Z,100500.75
2023-02-12T08:01:37.125Z,100484.34
2023-02-12T08:04:09.300Z,100481.94
2023-02-12T08:06:38.919Z,100476.56
2023-02-12T08:09:08.226Z,100480.50
2023-02-12T08:11:35.130Z,100479.03
2023-02-12T08:14:01.590Z,100479.94
2023-02-12T08:16:29.272Z,100481.88
2023-02-12T08:19:07.306Z,100481.22
2023-02-12T08:21:41.249Z,100485.84
2023-02-12T08:24:07.817Z,100484.69
2023-02-12T08:26:36.882Z,100481.13
2023-02-12T08:29:15.265Z,100484.06
2023-02-12T08:31:44.834Z,100485.91
2023-02-12T08:34:23.869Z,100482.84
2023-02-12T08:36:54.090Z,100489.66
2023-02-12T08:39:21.560Z,100488.00
2023-02-12T08:41:48.625Z,100479.91
2023-02-12T08:44:16.768Z,100483.53
2023-02-12T08:46:46.948Z,100480.75
2023-02-12T08:49:16.005Z,100486.84
2023-02-12T08:51:45.892Z,100477.22
2023-02-12T08:54:15.446Z,100476.47
2023-02-12T08:56:42.799Z,100483.13
2023-02-12T08:59:10.955Z,100477.41
2023-02-12T09:01:38.718Z,100481.72
2023-02-12T09:04:05.993Z,100473.63
2023-02-12T09:06:34.463Z,100477.34
2023-02-12T09:09:02.162Z,100479.09
2023-02-12T09:11:32.422Z,100472.59
2023-02-12T09:14:02.137Z,100469.03
2023-02-12T09:16:30.639Z,100475.44
2023-02-12T09:18:57.527Z,100478.25
2023-02-12T09:21:24.222Z,100473.25
2023-02-12T09:23:50.831Z,100475.16
2023-02-12T09:26:23.051Z,100474.78
2023-02-12T09:28:50.625Z,100466.81
2023-02-12T09:31:26.558Z,100471.75
2023-02-12T09:34:04.058Z,100462.03
2023-02-12T09:36:31.811Z,100467.94
2023-02-12T09:38:59.442Z,100467.25
2023-02-12T09:41:48.691Z,100469.22
2023-02-12T09:44:22.669Z,100466.72
2023-02-12T09:47:00.167Z,100474.06
2023-02-12T09:49:39.514Z,100469.47
2023-02-12T09:52:13.779Z,100469.28
2023-02-12T09:54:40.340Z,100469.84
2023-02-12T09:57:17.592Z,100466.63
2023-02-12T10:00:10.127Z,100470.22
2023-02-12T10:02:39.009Z,100465.41
2023-02-12T10:05:14.487Z,100469.50
2023-02-12T10:07:43.672Z,100456.19
2023-02-12T10:10:31.465Z,100461.28
2023-02-12T10:13:04.070Z,100457.38
2023-02-12T10:16:07.457Z,100456.34
2023-02-12T10:18:51.106Z,100448.00
2023-02-12T10:21:20.348Z,100454.16
2023-02-12T10:23:52.697Z,100442.78
2023-02-12T10:26:25.915Z,100434.41
2023-02-12T10:28:53.233Z,100435.06
2023-02-12T10:31:30.373Z,100426.44
2023-02-12T10:33:57.544Z,100433.09
2023-02-12T10:36:42.494Z,100428.06
2023-02-12T10:39:14.546Z,100426.53
2023-02-12T10:41:49.076Z,100422.13
2023-02-12T10:44:15.711Z,100418.13
2023-02-12T10:46:42.214Z,100405.47
2023-02-12T10:49:14.014Z,100409.59
2023-02-12T10:51:55.538Z,100399.31
2023-02-12T10:54:32.361Z,100396.66
2023-02-12T10:57:04.833Z,100399.91
2023-02-12T10:59:31.381Z,100392.44
2023-02-12T11:01:57.996Z,100388.03
2023-02-12T11:04:27.727Z,100383.91
2023-02-12T11:07:03.551Z,100381.88
2023-02-12T11:09:45.404Z,100369.97
2023-02-12T11:12:21.027Z,100363.72
2023-02-12T11:14:54.044Z,100360.13
2023-02-12T11:17:29.749Z,100359.63
2023-02-12T11:20:24.849Z,100354.59
2023-02-12T11:22:55.969Z,100358.03
2023-02-12T11:25:25.408Z,100350.94
2023-02-12T11:28:18.818Z,100342.19
2023-02-12T11:30:55.521Z,100331.81
2023-02-12T11:33:25.628Z,100325.84
2023-02-12T11:35:56.092Z,100336.31
2023-02-12T11:38:35.096Z,100331.47
2023-02-12T11:41:37.516Z,100327.81
2023-02-12T11:44:13.252Z,100328.03
2023-02-12T11:46:40.861Z,100322.16
2023-02-12T11:49:09.377Z,100315.47
2023-02-12T11:51:37.775Z,100316.84
2023-02-12T11:54:07.592Z,100315.31
2023-02-12T11:56:43.482Z,100315.19
2023-02-12T11:59:21.876Z,100309.41
2023-02-12T12:01:51.297Z,100295.03
2023-02-12T12:04:22.849Z,100295.50
2023-02-12T12:07:00.029Z,100296.88
2023-02-12T12:09:49.651Z,100281.28
2023-02-12T12:12:31.382Z,100280.97
2023-02-12T12:15:33.964Z,100279.53
2023-02-12T12:18:31.969Z,100273.19
2023-02-12T12:21:08.303Z,100269.72
2023-02-12T12:24:11.407Z,100266.50
2023-02-12T12:26:41.945Z,100248.16
2023-02-12T12:29:40.549Z,100243.75
2023-02-12T12:32:10.005Z,100248.88
2023-02-12T12:34:36.508Z,100246.19
2023-02-12T12:37:18.098Z,100247.00
2023-02-12T12:39:59.934Z,100248.53
2023-02-12T12:42:28.340Z,100238.31
2023-02-12T12:45:16.291Z,100239.75
2023-02-12T12:47:54.860Z,100237.72
2023-02-12T12:50:46.205Z,100232.53
2023-02-12T12:53:22.191Z,100233.91
2023-02-12T12:56:07.280Z,100224.56
2023-02-12T12:58:52.642Z,100231.19
2023-02-12T13:01:44.978Z,100233.91
2023-02-12T13:04:47.739Z,100223.28
2023-02-12T13:07:58.608Z,100223.75
2023-02-12T13:10:48.197Z,100230.91
2023-02-12T13:13:29.038Z,100227.75
2023-02-12T13:16:04.588Z,100226.03
2023-02-12T13:18:31.030Z,100219.34
2023-02-12T13:21:20.926Z,100221.25
2023-02-12T13:24:10.299Z,100228.88
2023-02-12T13:26:50.566Z,100221.97
2023-02-12T13:29:23.311Z,100226.81
2023-02-12T13:32:02.631Z,100222.09
2023-02-12T13:34:32.473Z,100221.50
2023-02-12T13:37:04.475Z,100219.22
2023-02-12T13:39:41.095Z,100214.53
2023-02-12T13:42:07.670Z,100219.00
2023-02-12T13:44:43.188Z,100222.19
2023-02-12T13:47:30.257Z,100222.09
2023-02-12T13:50:05.525Z,100221.91
2023-02-12T13:52:49.384Z,100223.44
2023-02-12T13:55:31.774Z,100216.78
2023-02-12T13:58:32.276Z,100226.59
2023-02-12T14:01:14.789Z,100222.66
2023-02-12T14:03:41.384Z,100218.69
2023-02-12T14:06:09.630Z,100225.66
2023-02-12T14:08:40.026Z,100228.16
2023-02-12T14:11:13.108Z,100232.97
2023-02-12T14:13:52.507Z,100228.25
2023-02-12T14:16:40.432Z,100224.53
2023-02-12T14:19:44.701Z,100237.28
2023-02-12T14:22:34.152Z,100234.19
2023-02-12T14:25:21.715Z,100227.28
2023-02-12T14:28:06.447Z,100230.69
2023-02-12T14:30:35.502Z,100226.09
2023-02-12T14:33:08.257Z,100225.94
2023-02-12T14:35:46.763Z,100220.09
2023-02-12T14:38:46.901Z,100234.00
2023-02-12T14:41:37.806Z,100230.69
2023-02-12T14:44:30.756Z,100243.38
2023-02-12T14:46:58.313Z,100233.19
2023-02-12T14:49:33.322Z,100226.56
2023-02-12T14:52:15.496Z,100234.47
2023-02-12T14:54:54.661Z,100232.59
2023-02-12T14:57:29.120Z,100233.22
2023-02-12T15:00:16.754Z,100229.06
2023-02-12T15:02:50.067Z,100233.81
2023-02-12T15:05:26.065Z,100235.25
2023-02-12T15:08:00.454Z,100227.81
2023-02-12T15:10:35.190Z,100231.09
2023-02-12T15:13:13.792Z,100234.16
2023-02-12T15:15:50.824Z,100243.06
2023-02-12T15:18:48.414Z,100240.53
2023-02-12T15:21:31.716Z,100241.34
2023-02-12T15:24:01.814Z,100241.66
2023-02-12T15:26:32.392Z,100240.25
2023-02-12T15:28:59.665Z,100249.13
2023-02-12T15:31:29.724Z,100247.59
2023-02-12T15:33:58.623Z,100240.31
2023-02-12T15:36:28.491Z,100250.03
2023-02-12T15:38:58.187Z,100245.09
2023-02-12T15:41:24.578Z,100245.28
2023-02-12T15:43:51.077Z,100241.25
2023-02-12T15:46:18.536Z,100240.72
2023-02-12T15:48:45.237Z,100244.66
2023-02-12T15:51:14.795Z,100245.84
2023-02-12T15:53:42.457Z,100249.56
2023-02-12T15:56:18.294Z,100247.50
2023-02-12T15:58:49.327Z,100243.38
2023-02-12T16:01:19.068Z,100240.84
2023-02-12T16:03:50.729Z,100248.66
2023-02-12T16:06:18.667Z,100249.06
2023-02-12T16:08:52.889Z,100245.38
2023-02-12T16:11:22.279Z,100240.66
2023-02-12T16:13:55.751Z,100254.59
2023-02-12T16:16:22.167Z,100245.47
2023-02-12T16:19:05.888Z,100249.63
2023-02-12T16:21:34.456Z,100245.66
2023-02-12T16:24:01.354Z,100248.66
2023-02-12T16:26:28.491Z,100251.72
2023-02-12T16:28:57.095Z,100248.66
2023-02-12T16:31:26.778Z,100248.91
2023-02-12T16:33:59.219Z,100252.69
2023-02-12T16:36:25.758Z,100254.28
2023-02-12T16:39:06.515Z,100248.47
2023-02-12T16:41:52.385Z,100249.75
2023-02-12T16:44:27.053Z,100248.78
2023-02-12T16:46:56.753Z,100245.06
2023-02-12T16:49:26.519Z,100244.50
2023-02-12T16:51:53.649Z,100246.84
2023-02-12T16:54:34.856Z,100242.81
2023-02-12T16:57:02.392Z,100250.03
2023-02-12T16:59:29.935Z,100253.53
2023-02-12T17:02:09.632Z,100251.69
2023-02-12T17:04:36.231Z,100256.19
2023-02-12T17:07:02.847Z,100253.56
2023-02-12T17:09:32.374Z,100254.75
2023-02-12T17:11:58.911Z,100261.94
2023-02-12T17:14:25.368Z,100253.94
2023-02-12T17:16:51.897Z,100256.81
2023-02-12T17:19:18.397Z,100257.84
2023-02-12T17:21:49.318Z,100264.72
2023-02-12T17:24:22.523Z,100263.03
2023-02-12T17:26:53.059Z,100264.38
2023-02-12T17:29:21.769Z,100261.66
2023-02-12T17:31:49.280Z,100272.72
2023-02-12T17:34:16.656Z,100269.03
2023-02-12T17:36:43.165Z,100267.78
2023-02-12T17:39:12.906Z,100270.28
2023-02-12T17:41:40.810Z,100268.03
2023-02-12T17:44:08.227Z,100271.25
2023-02-12T17:46:34.922Z,100271.00
2023-02-12T17:49:01.475Z,100274.81
2023-02-12T17:51:28.069Z,100265.56
2023-02-12T17:53:54.613Z,100278.00
2023-02-12T17:56:23.225Z,100271.38
2023-02-12T17:58:49.858Z,100274.25
2023-02-12T18:01:19.860Z,100278.59
2023-02-12T18:03:46.876Z,100274.06
2023-02-12T18:06:16.546Z,100276.44
2023-02-12T18:08:43.675Z,100275.84
2023-02-12T18:11:11.648Z,100278.88
2023-02-12T18:13:38.350Z,100283.19
2023-02-12T18:16:09.646Z,100282.56
2023-02-12T18:18:37.330Z,100282.56
2023-02-12T18:21:13.331Z,100281.56
2023-02-12T18:23:40.459Z,100280.03
2023-02-12T18:26:12.553Z,100285.56
2023-02-12T18:28:39.910Z,100279.69
2023-02-12T18:31:07.203Z,100277.88
2023-02-12T18:33:33.903Z,100280.53
2023-02-12T18:36:09.665Z,100286.38
2023-02-12T18:38:38.256Z,100281.19
2023-02-12T18:41:10.865Z,100289.03
2023-02-12T18:43:37.870Z,100289.53
2023-02-12T18:46:08.630Z,100284.84
2023-02-12T18:48:36.264Z,100283.53
2023-02-12T18:51:07.413Z,100291.88
2023-02-12T18:53:34.048Z,100291.84
2023-02-12T18:56:04.980Z,100285.03
2023-02-12T18:58:31.510Z,100283.53
2023-02-12T19:00:58.275Z,100286.88
2023-02-12T19:03:25.742Z,100291.22
2023-02-12T19:05:52.979Z,100289.81
2023-02-12T19:08:19.644Z,100292.81
2023-02-12T19:10:49.440Z,100290.97
2023-02-12T19:13:15.988Z,100296.16
2023-02-12T19:15:42.665Z,100291.47
2023-02-12T19:18:09.134Z,100288.28
2023-02-12T19:20:39.244Z,100293.03
2023-02-12T19:23:05.741Z,100289.53
2023-02-12T19:25:35.456Z,100290.34
2023-02-12T19:28:01.919Z,100292.06
2023-02-12T19:30:28.377Z,100290.31
2023-02-12T19:32:54.850Z,100288.28
2023-02-12T19:35:21.395Z,100286.59
2023-02-12T19:37:47.883Z,100291.22
2023-02-12T19:40:14.522Z,100294.59
2023-02-12T19:42:41.044Z,100304.31
2023-02-12T19:45:07.990Z,100300.72
2023-02-12T19:47:34.530Z,100304.78
2023-02-12T19:50:01.060Z,100298.94
2023-02-12T19:52:27.562Z,100307.19
2023-02-12T19:54:54.187Z,100309.91
2023-02-12T19:57:20.722Z,100302.38
2023-02-12T19:59:47.485Z,100312.31
2023-02-12T20:02:13.977Z,100308.31
2023-02-12T20:04:40.584Z,100300.59
2023-02-12T20:07:08.282Z,100313.66
2023-02-12T20:09:35.652Z,100310.97
2023-02-12T20:12:02.615Z,100302.50
2023-02-12T20:14:29.275Z,100309.31
2023-02-12T20:16:57.342Z,100294.69
2023-02-12T20:19:33.165Z,100299.19
2023-02-12T20:22:01.640Z,100302.25
2023-02-12T20:24:30.716Z,100292.84
2023-02-12T20:26:59.232Z,100294.56
2023-02-12T20:29:25.929Z,100300.28
2023-02-12T20:31:52.830Z,100300.66
2023-02-12T20:34:20.578Z,100305.50
2023-02-12T20:36:47.453Z,100312.44
2023-02-12T20:39:16.663Z,100310.09
2023-02-12T20:41:43.564Z,100305.50
2023-02-12T20:44:14.189Z,100308.84
2023-02-12T20:46:42.227Z,100316.28
2023-02-12T20:49:10.645Z,100314.94
2023-02-12T20:51:37.166Z,100314.31
2023-02-12T20:54:04.046Z,100313.81
2023-02-12T20:56:33.477Z,100314.72
2023-02-12T20:59:00.878Z,100313.50
2023-02-12T21:01:32.821Z,100325.34
2023-02-12T21:04:09.137Z,100322.47
2023-02-12T21:06:37.012Z,100327.41
2023-02-12T21:09:03.914Z,100326.19
2023-02-12T21:11:30.424Z,100326.03
2023-02-12T21:14:12.456Z,100332.00
2023-02-12T21:16:45.619Z,100334.69
2023-02-12T21:19:14.164Z,100334.63
2023-02-12T21:21:42.307Z,100330.56
2023-02-12T21:24:12.949Z,100326.69
2023-02-12T21:26:39.521Z,100338.16
2023-02-12T21:29:06.229Z,100334.94
2023-02-12T21:31:35.259Z,100333.56
2023-02-12T21:34:03.611Z,100336.94
2023-02-12T21:36:35.856Z,100328.84
2023-02-12T21:39:04.280Z,100329.69
2023-02-12T21:41:36.469Z,100325.78
2023-02-12T21:44:11.056Z,100327.47
2023-02-12T21:46:37.929Z,100315.66
2023-02-12T21:49:05.503Z,100329.50
2023-02-12T21:51:35.054Z,100330.53
2023-02-12T21:54:04.536Z,100338.47
2023-02-12T21:56:31.601Z,100346.84
2023-02-12T21:58:59.202Z,100346.44
2023-02-12T22:01:29.629Z,100347.16
2023-02-12T22:03:56.114Z,100350.22
2023-02-12T22:06:24.960Z,100355.03
2023-02-12T22:08:52.947Z,100349.72
2023-02-12T22:11:21.072Z,100353.03
2023-02-12T22:13:47.657Z,100355.53
2023-02-12T22:16:17.923Z,100354.41
2023-02-12T22:18:45.340Z,100357.78
2023-02-12T22:21:13.825Z,100353.63
2023-02-12T22:23:41.097Z,100360.19
2023-02-12T22:26:28.210Z,100356.16
2023-02-12T22:29:02.681Z,100346.31
2023-02-12T22:31:31.947Z,100354.41
2023-02-12T22:34:00.870Z,100358.00
2023-02-12T22:36:27.926Z,100358.34
2023-02-12T22:38:57.340Z,100357.41
2023-02-12T22:41:24.138Z,100357.59
2023-02-12T22:43:50.658Z,100359.13
2023-02-12T22:46:17.270Z,100355.69
2023-02-12T22:48:44.099Z,100353.16
2023-02-12T22:51:20.035Z,100359.69
2023-02-12T22:53:47.118Z,100361.97
2023-02-12T22:56:13.881Z,100364.78
2023-02-12T22:58:40.731Z,100366.59
2023-02-12T23:01:12.858Z,100365.34
2023-02-12T23:03:39.755Z,100374.94
2023-02-12T23:06:10.193Z,100370.63
2023-02-12T23:08:36.882Z,100372.03
2023-02-12T23:11:04.691Z,100374.97
2023-02-12T23:13:32.529Z,100371.19
2023-02-12T23:15:59.085Z,100364.34
2023-02-12T23:18:25.730Z,100365.75
2023-02-12T23:20:53.252Z,100363.50
2023-02-12T23:23:21.449Z,100374.69
2023-02-12T23:25:48.579Z,100370.06
2023-02-12T23:28:15.752Z,100366.44
2023-02-12T23:30:43.116Z,100365.59
2023-02-12T23:33:10.038Z,100367.38
2023-02-12T23:35:36.534Z,100362.06
2023-02-12T23:38:04.364Z,100366.22
2023-02-12T23:40:32.892Z,100369.00
2023-02-12T23:42:59.751Z,100368.38
2023-02-12T23:45:27.105Z,100364.06
2023-02-12T23:47:54.350Z,100366.81
2023-02-12T23:50:20.979Z,100358.59
2023-02-12T23:52:47.456Z,100365.38
2023-02-12T23:55:14.224Z,100359.75
2023-02-12T23:57:40.678Z,100368.63
